createdAt,value
2023-02-06T00:02:04.745Z,1.00
2023-02-06T00:04:31.168Z,0.97
2023-02-06T00:06:57.534Z,0.90
2023-02-06T00:09:23.903Z,0.84
2023-02-06T00:11:50.307Z,0.83
2023-02-06T00:14:16.675Z,0.92
2023-02-06T00:16:43.666Z,0.79
2023-02-06T00:19:10.079Z,0.82
2023-02-06T00:21:36.525Z,0.86
2023-02-06T00:24:03.388Z,0.84
2023-02-06T00:26:30.792Z,0.91
2023-02-06T00:28:57.209Z,0.89
2023-02-06T00:31:24.340Z,0.73
2023-02-06T00:33:51.618Z,0.77
2023-02-06T00:36:18.456Z,0.78
2023-02-06T00:38:44.861Z,0.80
2023-02-06T00:41:11.321Z,0.82
2023-02-06T00:43:37.790Z,0.91
2023-02-06T00:46:04.456Z,0.93
2023-02-06T00:48:30.996Z,1.20
2023-02-06T00:50:58.030Z,1.07
2023-02-06T00:53:24.500Z,0.96
2023-02-06T00:55:51.665Z,1.00
2023-02-06T00:58:21.398Z,0.83
2023-02-06T01:00:47.847Z,0.87
2023-02-06T01:03:14.274Z,0.72
2023-02-06T01:05:42.029Z,0.59
2023-02-06T01:08:09.075Z,0.34
2023-02-06T01:10:35.674Z,0.43
2023-02-06T01:13:02.186Z,0.44
2023-02-06T01:15:28.762Z,0.46
2023-02-06T01:17:55.974Z,0.46
2023-02-06T01:20:23.149Z,0.45
2023-02-06T01:22:49.708Z,0.45
2023-02-06T01:25:16.868Z,0.44
2023-02-06T01:27:43.304Z,0.45
2023-02-06T01:30:11.241Z,0.45
2023-02-06T01:32:38.402Z,0.42
2023-02-06T01:35:06.408Z,0.33
2023-02-06T01:37:34.413Z,0.31
2023-02-06T01:40:00.833Z,0.34
2023-02-06T01:42:27.946Z,0.45
2023-02-06T01:45:17.181Z,0.45
2023-02-06T01:47:43.585Z,0.56
2023-02-06T01:50:10.126Z,0.49
2023-02-06T01:52:36.517Z,0.55
2023-02-06T01:55:04.833Z,0.52
2023-02-06T01:57:33.624Z,0.36
2023-02-06T02:00:04.707Z,0.20
2023-02-06T02:02:42.558Z,0.17
2023-02-06T02:05:11.042Z,0.34
2023-02-06T02:07:44.218Z,0.32
2023-02-06T02:10:10.738Z,0.31
2023-02-06T02:12:37.769Z,0.34
2023-02-06T02:15:04.815Z,0.38
2023-02-06T02:17:38.452Z,0.60
2023-02-06T02:20:31.479Z,0.59
2023-02-06T02:23:11.130Z,0.80
2023-02-06T02:26:02.859Z,0.78
2023-02-06T02:29:08.340Z,0.64
2023-02-06T02:31:58.773Z,0.50
2023-02-06T02:35:05.033Z,0.37
2023-02-06T02:37:47.634Z,0.29
2023-02-06T02:40:23.087Z,0.31
2023-02-06T02:42:58.432Z,0.34
2023-02-06T02:45:32.922Z,0.45
2023-02-06T02:48:06.271Z,0.45
2023-02-06T02:50:35.200Z,0.58
2023-02-06T02:53:03.242Z,0.55
2023-02-06T02:55:29.764Z,0.62
2023-02-06T02:58:05.431Z,0.36
2023-02-06T03:00:36.423Z,0.27
2023-02-06T03:03:07.398Z,0.29
2023-02-06T03:05:40.947Z,0.25
2023-02-06T03:08:18.528Z,0.28
2023-02-06T03:10:55.268Z,0.21
2023-02-06T03:13:29.414Z,0.19
2023-02-06T03:16:01.861Z,0.28
2023-02-06T03:18:35.048Z,0.21
2023-02-06T03:21:06.036Z,0.29
2023-02-06T03:23:41.186Z,0.17
2023-02-06T03:26:12.073Z,0.53
2023-02-06T03:28:42.178Z,0.32
2023-02-06T03:31:12.526Z,0.37
2023-02-06T03:33:58.839Z,0.23
2023-02-06T03:36:26.040Z,-0.08
2023-02-06T03:38:53.369Z,-0.16
2023-02-06T03:41:25.543Z,-0.32
2023-02-06T03:43:53.633Z,-0.32
2023-02-06T03:46:21.582Z,-0.27
2023-02-06T03:48:53.587Z,-0.40
2023-02-06T03:51:28.019Z,-0.44
2023-02-06T03:53:58.033Z,-0.42
2023-02-06T03:56:32.350Z,-0.47
2023-02-06T03:58:58.963Z,-0.26
2023-02-06T04:01:25.884Z,-0.39
2023-02-06T04:03:52.497Z,-0.41
2023-02-06T04:06:19.379Z,-0.26
2023-02-06T04:08:45.987Z,-0.11
2023-02-06T04:11:13.037Z,-0.12
2023-02-06T04:13:39.441Z,-0.24
2023-02-06T04:16:06.060Z,-0.13
2023-02-06T04:18:32.620Z,-0.21
2023-02-06T04:21:03.245Z,-0.25
2023-02-06T04:23:31.351Z,-0.26
2023-02-06T04:25:57.897Z,-0.21
2023-02-06T04:28:25.004Z,-0.39
2023-02-06T04:30:51.485Z,-0.24
2023-02-06T04:33:17.960Z,-0.36
2023-02-06T04:35:44.435Z,-0.52
2023-02-06T04:38:10.828Z,-0.32
2023-02-06T04:40:37.222Z,-0.49
2023-02-06T04:43:03.688Z,-0.41
2023-02-06T04:45:30.766Z,-0.52
2023-02-06T04:47:59.403Z,-0.59
2023-02-06T04:50:28.689Z,-0.76
2023-02-06T04:52:55.091Z,-0.91
2023-02-06T04:55:22.076Z,-1.07
2023-02-06T04:57:48.576Z,-1.06
2023-02-06T05:00:16.000Z,-1.08
2023-02-06T05:02:43.258Z,-1.15
2023-02-06T05:05:10.062Z,-1.07
2023-02-06T05:07:36.896Z,-1.09
2023-02-06T05:10:03.900Z,-1.20
2023-02-06T05:12:30.300Z,-1.29
2023-02-06T05:14:56.933Z,-1.36
2023-02-06T05:17:23.296Z,-1.16
2023-02-06T05:19:50.519Z,-0.92
2023-02-06T05:22:16.965Z,-1.12
2023-02-06T05:24:43.382Z,-1.05
2023-02-06T05:27:09.811Z,-1.14
2023-02-06T05:29:36.250Z,-1.27
2023-02-06T05:32:02.888Z,-1.42
2023-02-06T05:34:29.318Z,-1.42
2023-02-06T05:36:56.404Z,-1.52
2023-02-06T05:39:22.811Z,-1.61
2023-02-06T05:41:49.333Z,-1.48
2023-02-06T05:44:15.734Z,-1.46
2023-02-06T05:46:42.212Z,-1.47
2023-02-06T05:49:08.682Z,-1.68
2023-02-06T05:51:35.549Z,-1.65
2023-02-06T05:54:02.741Z,-1.71
2023-02-06T05:56:29.181Z,-1.92
2023-02-06T05:58:55.621Z,-2.22
2023-02-06T06:01:22.037Z,-2.33
2023-02-06T06:03:48.579Z,-2.39
2023-02-06T06:06:14.978Z,-2.34
2023-02-06T06:08:41.408Z,-2.26
2023-02-06T06:11:11.361Z,-2.36
2023-02-06T06:13:37.831Z,-2.45
2023-02-06T06:16:04.738Z,-2.41
2023-02-06T06:18:31.334Z,-2.45
2023-02-06T06:20:57.855Z,-2.51
2023-02-06T06:23:24.312Z,-2.54
2023-02-06T06:25:50.841Z,-2.50
2023-02-06T06:28:18.113Z,-2.37
2023-02-06T06:30:44.822Z,-2.47
2023-02-06T06:33:13.468Z,-2.53
2023-02-06T06:35:40.031Z,-2.50
2023-02-06T06:38:06.521Z,-2.42
2023-02-06T06:40:33.058Z,-2.42
2023-02-06T06:42:59.550Z,-2.51
2023-02-06T06:45:26.720Z,-2.47
2023-02-06T06:47:53.159Z,-2.45
2023-02-06T06:50:19.672Z,-2.53
2023-02-06T06:52:47.196Z,-2.47
2023-02-06T06:55:13.652Z,-2.56
2023-02-06T06:57:41.760Z,-2.58
2023-02-06T07:00:09.848Z,-2.50
2023-02-06T07:02:40.428Z,-2.39
2023-02-06T07:05:07.208Z,-2.29
2023-02-06T07:07:33.861Z,-2.36
2023-02-06T07:10:00.600Z,-2.45
2023-02-06T07:12:27.638Z,-2.62
2023-02-06T07:14:54.088Z,-2.54
2023-02-06T07:17:20.574Z,-2.56
2023-02-06T07:19:49.962Z,-2.36
2023-02-06T07:22:16.550Z,-2.14
2023-02-06T07:24:42.994Z,-1.88
2023-02-06T07:27:10.174Z,-1.67
2023-02-06T07:29:37.488Z,-1.39
2023-02-06T07:32:04.427Z,-1.26
2023-02-06T07:34:37.022Z,-0.84
2023-02-06T07:37:04.574Z,-0.65
2023-02-06T07:39:30.928Z,-0.61
2023-02-06T07:41:59.295Z,-0.53
2023-02-06T07:44:34.574Z,-0.75
2023-02-06T07:47:01.025Z,-0.56
2023-02-06T07:49:27.460Z,-0.52
2023-02-06T07:51:57.793Z,-0.60
2023-02-06T07:54:25.052Z,-0.84
2023-02-06T07:56:51.513Z,-1.14
2023-02-06T07:59:18.362Z,-1.09
2023-02-06T08:01:44.785Z,-1.03
2023-02-06T08:04:11.873Z,-1.20
2023-02-06T08:06:40.904Z,-1.25
2023-02-06T08:09:07.546Z,-1.29
2023-02-06T08:11:36.216Z,-1.16
2023-02-06T08:14:04.409Z,-1.18
2023-02-06T08:16:31.014Z,-0.96
2023-02-06T08:18:57.456Z,-1.21
2023-02-06T08:21:25.401Z,-1.16
2023-02-06T08:23:56.502Z,-1.06
2023-02-06T08:26:24.177Z,-1.04
2023-02-06T08:29:01.231Z,-0.98
2023-02-06T08:31:30.258Z,-0.95
2023-02-06T08:33:56.877Z,-1.00
2023-02-06T08:36:30.177Z,-1.11
2023-02-06T08:38:57.389Z,-1.18
2023-02-06T08:41:26.516Z,-0.98
2023-02-06T08:43:56.201Z,-0.64
2023-02-06T08:46:24.464Z,1.90
2023-02-06T08:48:55.042Z,2.69
2023-02-06T08:51:27.092Z,2.66
2023-02-06T08:53:57.733Z,1.83
2023-02-06T08:56:25.104Z,2.52
2023-02-06T08:58:52.875Z,4.29
2023-02-06T09:01:20.957Z,3.64
2023-02-06T09:03:48.219Z,3.40
2023-02-06T09:06:16.318Z,3.34
2023-02-06T09:08:42.815Z,3.35
2023-02-06T09:11:11.527Z,3.10
2023-02-06T09:13:41.438Z,3.44
2023-02-06T09:16:08.059Z,3.55
2023-02-06T09:18:36.149Z,3.25
2023-02-06T09:21:05.272Z,3.32
2023-02-06T09:23:31.717Z,3.58
2023-02-06T09:25:58.236Z,3.43
2023-02-06T09:28:25.282Z,3.92
2023-02-06T09:30:52.573Z,3.67
2023-02-06T09:33:19.284Z,3.93
2023-02-06T09:35:49.604Z,3.32
2023-02-06T09:38:16.052Z,1.92
2023-02-06T09:40:42.512Z,3.06
2023-02-06T09:43:13.580Z,2.95
2023-02-06T09:45:41.181Z,2.80
2023-02-06T09:48:19.545Z,2.70
2023-02-06T09:50:55.013Z,2.82
2023-02-06T09:53:30.473Z,2.73
2023-02-06T09:56:08.148Z,2.99
2023-02-06T09:58:42.120Z,3.46
2023-02-06T10:01:16.877Z,4.58
2023-02-06T10:03:58.548Z,4.02
2023-02-06T10:06:29.949Z,3.92
2023-02-06T10:09:01.422Z,3.84
2023-02-06T10:11:38.235Z,4.33
2023-02-06T10:14:12.525Z,4.15
2023-02-06T10:16:44.097Z,3.80
2023-02-06T10:19:21.176Z,3.70
2023-02-06T10:21:51.670Z,3.56
2023-02-06T10:24:26.820Z,3.40
2023-02-06T10:26:54.088Z,3.11
2023-02-06T10:29:26.210Z,3.14
2023-02-06T10:32:03.891Z,3.78
2023-02-06T10:34:44.702Z,3.29
2023-02-06T10:37:24.143Z,3.49
2023-02-06T10:40:12.604Z,4.16
2023-02-06T10:42:49.540Z,3.22
2023-02-06T10:45:29.310Z,2.46
2023-02-06T10:48:02.128Z,2.67
2023-02-06T10:50:32.510Z,2.09
2023-02-06T10:53:05.423Z,2.75
2023-02-06T10:55:41.358Z,2.91
2023-02-06T10:58:15.711Z,2.17
2023-02-06T11:00:45.480Z,2.61
2023-02-06T11:03:18.264Z,2.99
2023-02-06T11:05:45.719Z,3.31
2023-02-06T11:08:23.652Z,3.07
2023-02-06T11:10:54.217Z,2.32
2023-02-06T11:13:28.766Z,2.59
2023-02-06T11:16:02.271Z,2.95
2023-02-06T11:18:33.440Z,2.34
2023-02-06T11:21:00.501Z,2.09
2023-02-06T11:23:29.993Z,1.40
2023-02-06T11:26:04.744Z,0.79
2023-02-06T11:28:33.981Z,0.55
2023-02-06T11:31:04.900Z,0.83
2023-02-06T11:33:38.439Z,1.09
2023-02-06T11:36:07.189Z,0.97
2023-02-06T11:38:34.452Z,1.09
2023-02-06T11:41:04.085Z,1.31
2023-02-06T11:43:33.295Z,1.19
2023-02-06T11:46:15.023Z,1.35
2023-02-06T11:48:43.862Z,1.41
2023-02-06T11:51:15.827Z,1.39
2023-02-06T11:53:56.259Z,0.95
2023-02-06T11:56:23.226Z,1.03
2023-02-06T11:59:02.252Z,1.04
2023-02-06T12:01:36.793Z,1.17
2023-02-06T12:04:03.655Z,1.34
2023-02-06T12:06:32.700Z,1.35
2023-02-06T12:09:01.769Z,1.30
2023-02-06T12:11:34.830Z,1.01
2023-02-06T12:14:05.202Z,0.67
2023-02-06T12:16:37.290Z,0.90
2023-02-06T12:19:10.889Z,0.83
2023-02-06T12:21:42.489Z,0.97
2023-02-06T12:24:24.856Z,0.85
2023-02-06T12:26:53.306Z,0.93
2023-02-06T12:29:22.768Z,0.74
2023-02-06T12:31:56.555Z,0.62
2023-02-06T12:34:27.853Z,0.36
2023-02-06T12:37:08.052Z,0.16
2023-02-06T12:39:35.438Z,0.10
2023-02-06T12:42:20.374Z,0.16
2023-02-06T12:44:52.076Z,0.12
2023-02-06T12:47:24.753Z,0.20
2023-02-06T12:50:00.298Z,0.14
2023-02-06T12:52:31.027Z,0.15
2023-02-06T12:55:12.975Z,-0.05
2023-02-06T12:57:39.779Z,-0.03
2023-02-06T13:00:26.909Z,-0.07
2023-02-06T13:03:15.175Z,-0.11
2023-02-06T13:05:44.363Z,-0.22
2023-02-06T13:08:14.489Z,-0.08
2023-02-06T13:10:42.880Z,-0.01
2023-02-06T13:13:26.339Z,-0.36
2023-02-06T13:15:54.916Z,-0.54
2023-02-06T13:18:51.764Z,-0.54
2023-02-06T13:21:22.147Z,-0.48
2023-02-06T13:23:50.450Z,-0.44
2023-02-06T13:26:17.505Z,-0.17
2023-02-06T13:28:59.102Z,-0.10
2023-02-06T13:31:32.974Z,-0.12
2023-02-06T13:34:12.795Z,-0.08
2023-02-06T13:37:01.528Z,-0.22
2023-02-06T13:39:33.119Z,0.00
2023-02-06T13:42:17.628Z,-0.16
2023-02-06T13:44:44.098Z,-0.12
2023-02-06T13:47:48.882Z,-0.23
2023-02-06T13:50:38.436Z,-0.31
2023-02-06T13:53:33.029Z,-0.58
2023-02-06T13:56:10.907Z,-0.60
2023-02-06T13:58:44.504Z,-0.79
2023-02-06T14:01:15.685Z,-0.62
2023-02-06T14:03:45.569Z,-0.48
2023-02-06T14:06:51.213Z,-0.61
2023-02-06T14:09:35.325Z,-0.54
2023-02-06T14:12:29.757Z,-0.80
2023-02-06T14:15:08.980Z,-0.91
2023-02-06T14:18:04.824Z,-0.83
2023-02-06T14:20:42.013Z,-0.82
2023-02-06T14:23:20.484Z,-0.60
2023-02-06T14:25:58.939Z,-0.61
2023-02-06T14:28:34.451Z,-0.44
2023-02-06T14:31:11.070Z,-0.56
2023-02-06T14:33:49.950Z,-0.61
2023-02-06T14:36:30.039Z,-0.68
2023-02-06T14:39:11.954Z,-0.57
2023-02-06T14:41:38.923Z,-0.54
2023-02-06T14:44:11.118Z,-0.59
2023-02-06T14:46:41.051Z,-0.42
2023-02-06T14:49:15.040Z,-0.29
2023-02-06T14:51:41.536Z,-0.38
2023-02-06T14:54:29.643Z,-0.22
2023-02-06T14:56:57.679Z,-0.18
2023-02-06T14:59:24.805Z,-0.33
2023-02-06T15:01:53.778Z,-0.30
2023-02-06T15:04:21.975Z,-0.20
2023-02-06T15:06:52.036Z,-0.30
2023-02-06T15:09:33.003Z,-0.43
2023-02-06T15:12:03.040Z,-0.54
2023-02-06T15:14:31.832Z,-0.64
2023-02-06T15:17:00.237Z,-0.71
2023-02-06T15:19:28.506Z,-0.71
2023-02-06T15:21:59.260Z,-0.74
2023-02-06T15:24:47.145Z,-0.85
2023-02-06T15:27:22.673Z,-0.84
2023-02-06T15:29:50.037Z,-0.68
2023-02-06T15:32:27.181Z,-0.71
2023-02-06T15:34:54.334Z,-0.96
2023-02-06T15:37:23.306Z,-0.98
2023-02-06T15:39:50.372Z,-0.92
2023-02-06T15:42:19.273Z,-1.04
2023-02-06T15:44:47.253Z,-1.02
2023-02-06T15:47:16.540Z,-1.15
2023-02-06T15:49:45.643Z,-1.24
2023-02-06T15:52:14.021Z,-1.24
2023-02-06T15:54:41.894Z,-1.31
2023-02-06T15:57:23.937Z,-1.32
2023-02-06T15:59:50.578Z,-1.44
2023-02-06T16:02:25.091Z,-1.50
2023-02-06T16:04:53.838Z,-1.52
2023-02-06T16:07:24.088Z,-1.52
2023-02-06T16:09:52.848Z,-1.56
2023-02-06T16:12:20.636Z,-1.54
2023-02-06T16:14:54.706Z,-1.46
2023-02-06T16:17:29.863Z,-1.38
2023-02-06T16:20:01.395Z,-1.45
2023-02-06T16:22:30.296Z,-1.39
2023-02-06T16:25:14.609Z,-1.46
2023-02-06T16:27:44.586Z,-1.39
2023-02-06T16:30:24.235Z,-1.41
2023-02-06T16:32:51.551Z,-1.41
2023-02-06T16:35:18.893Z,-1.31
2023-02-06T16:37:45.306Z,-1.36
2023-02-06T16:40:11.870Z,-1.25
2023-02-06T16:42:40.764Z,-1.33
2023-02-06T16:45:09.617Z,-1.24
2023-02-06T16:47:38.657Z,-1.11
2023-02-06T16:50:05.561Z,-1.11
2023-02-06T16:52:34.058Z,-1.06
2023-02-06T16:55:01.309Z,-1.07
2023-02-06T16:57:31.375Z,-1.17
2023-02-06T16:59:58.348Z,-1.11
2023-02-06T17:02:25.841Z,-1.16
2023-02-06T17:04:52.364Z,-1.15
2023-02-06T17:07:21.169Z,-1.22
2023-02-06T17:09:49.551Z,-1.21
2023-02-06T17:12:17.953Z,-1.21
2023-02-06T17:14:45.050Z,-1.26
2023-02-06T17:17:13.100Z,-1.21
2023-02-06T17:19:40.395Z,-1.23
2023-02-06T17:22:08.022Z,-0.98
2023-02-06T17:24:35.631Z,-0.96
2023-02-06T17:27:03.215Z,-0.99
2023-02-06T17:29:32.067Z,-0.95
2023-02-06T17:31:58.754Z,-0.83
2023-02-06T17:34:26.154Z,-0.90
2023-02-06T17:36:53.306Z,-0.94
2023-02-06T17:39:20.715Z,-0.94
2023-02-06T17:41:47.149Z,-1.01
2023-02-06T17:44:16.236Z,-0.96
2023-02-06T17:46:43.062Z,-1.02
2023-02-06T17:49:09.977Z,-1.12
2023-02-06T17:51:38.198Z,-1.05
2023-02-06T17:54:06.396Z,-1.06
2023-02-06T17:56:33.742Z,-0.97
2023-02-06T17:59:00.211Z,-1.00
2023-02-06T18:01:30.534Z,-0.88
2023-02-06T18:04:01.590Z,-0.85
2023-02-06T18:06:32.464Z,-0.75
2023-02-06T18:08:59.197Z,-0.73
2023-02-06T18:11:25.616Z,-0.79
2023-02-06T18:13:53.137Z,-0.82
2023-02-06T18:16:23.387Z,-0.92
2023-02-06T18:18:50.845Z,-0.90
2023-02-06T18:21:18.762Z,-0.89
2023-02-06T18:23:45.665Z,-0.80
2023-02-06T18:26:12.079Z,-0.78
2023-02-06T18:28:39.545Z,-0.80
2023-02-06T18:31:20.452Z,-0.90
2023-02-06T18:33:47.050Z,-0.87
2023-02-06T18:36:14.468Z,-0.95
2023-02-06T18:38:41.952Z,-1.05
2023-02-06T18:41:28.946Z,-0.92
2023-02-06T18:43:55.418Z,-0.90
2023-02-06T18:46:21.971Z,-0.90
2023-02-06T18:48:48.467Z,-0.89
2023-02-06T18:51:18.587Z,-0.89
2023-02-06T18:53:45.103Z,-0.94
2023-02-06T18:56:11.634Z,-0.99
2023-02-06T18:58:39.946Z,-0.90
2023-02-06T19:01:11.969Z,-1.01
2023-02-06T19:03:39.831Z,-0.90
2023-02-06T19:06:11.774Z,-0.82
2023-02-06T19:08:41.238Z,-0.94
2023-02-06T19:11:09.614Z,-0.98
2023-02-06T19:13:36.757Z,-1.03
2023-02-06T19:16:06.084Z,-1.11
2023-02-06T19:18:38.785Z,-1.14
2023-02-06T19:21:07.849Z,-1.13
2023-02-06T19:23:35.519Z,-1.12
2023-02-06T19:26:05.292Z,-1.15
2023-02-06T19:28:33.719Z,-1.26
2023-02-06T19:31:00.580Z,-1.41
2023-02-06T19:33:28.009Z,-1.46
2023-02-06T19:35:54.461Z,-1.49
2023-02-06T19:38:20.966Z,-1.51
2023-02-06T19:40:47.536Z,-1.52
2023-02-06T19:43:15.759Z,-1.61
2023-02-06T19:45:42.390Z,-1.64
2023-02-06T19:48:13.066Z,-1.74
2023-02-06T19:50:40.160Z,-1.77
2023-02-06T19:53:07.105Z,-1.86
2023-02-06T19:55:33.756Z,-1.74
2023-02-06T19:58:00.337Z,-1.80
2023-02-06T20:00:32.714Z,-1.83
2023-02-06T20:02:59.188Z,-1.91
2023-02-06T20:05:25.749Z,-1.94
2023-02-06T20:07:53.070Z,-1.87
2023-02-06T20:10:20.079Z,-2.07
2023-02-06T20:12:46.621Z,-2.21
2023-02-06T20:15:16.426Z,-2.16
2023-02-06T20:17:43.479Z,-2.07
2023-02-06T20:20:11.264Z,-1.95
2023-02-06T20:22:39.688Z,-1.97
2023-02-06T20:25:07.017Z,-2.06
2023-02-06T20:27:33.773Z,-2.19
2023-02-06T20:30:00.235Z,-2.21
2023-02-06T20:32:26.704Z,-2.23
2023-02-06T20:34:53.975Z,-2.15
2023-02-06T20:37:20.719Z,-2.08
2023-02-06T20:39:48.381Z,-2.07
2023-02-06T20:42:15.061Z,-2.20
2023-02-06T20:44:41.534Z,-2.34
2023-02-06T20:47:09.300Z,-2.36
2023-02-06T20:49:35.716Z,-2.46
2023-02-06T20:52:02.984Z,-2.56
2023-02-06T20:54:29.564Z,-2.54
2023-02-06T20:56:56.312Z,-2.42
2023-02-06T20:59:22.879Z,-2.39
2023-02-06T21:01:49.409Z,-2.34
2023-02-06T21:04:16.837Z,-2.28
2023-02-06T21:06:44.545Z,-2.51
2023-02-06T21:09:11.914Z,-2.59
2023-02-06T21:11:41.387Z,-2.51
2023-02-06T21:14:08.011Z,-2.58
2023-02-06T21:16:36.829Z,-2.64
2023-02-06T21:19:04.774Z,-2.61
2023-02-06T21:21:32.035Z,-2.50
2023-02-06T21:23:58.544Z,-2.39
2023-02-06T21:26:26.932Z,-2.52
2023-02-06T21:28:54.250Z,-2.56
2023-02-06T21:31:31.824Z,-2.62
2023-02-06T21:34:01.898Z,-2.58
2023-02-06T21:36:29.076Z,-2.69
2023-02-06T21:38:55.619Z,-2.71
2023-02-06T21:41:22.027Z,-2.83
2023-02-06T21:43:49.340Z,-2.75
2023-02-06T21:46:15.952Z,-2.72
2023-02-06T21:48:42.485Z,-2.75
2023-02-06T21:51:09.663Z,-2.69
2023-02-06T21:53:36.097Z,-2.84
2023-02-06T21:56:05.434Z,-2.75
2023-02-06T21:58:32.002Z,-2.70
2023-02-06T22:00:59.184Z,-2.75
2023-02-06T22:03:25.667Z,-2.82
2023-02-06T22:05:52.152Z,-2.80
2023-02-06T22:08:18.617Z,-2.70
2023-02-06T22:10:45.094Z,-2.85
2023-02-06T22:13:11.633Z,-2.87
2023-02-06T22:15:38.398Z,-2.89
2023-02-06T22:18:05.734Z,-2.96
2023-02-06T22:20:32.126Z,-3.13
2023-02-06T22:22:58.633Z,-3.11
2023-02-06T22:25:26.079Z,-3.15
2023-02-06T22:27:53.490Z,-3.02
2023-02-06T22:30:20.036Z,-2.99
2023-02-06T22:32:48.949Z,-3.13
2023-02-06T22:35:16.272Z,-3.18
2023-02-06T22:37:44.562Z,-3.23
2023-02-06T22:40:11.495Z,-3.22
2023-02-06T22:42:37.988Z,-3.21
2023-02-06T22:45:05.852Z,-3.29
2023-02-06T22:47:32.435Z,-3.28
2023-02-06T22:49:58.834Z,-3.25
2023-02-06T22:52:45.921Z,-3.26
2023-02-06T22:55:12.475Z,-3.40
2023-02-06T22:57:38.887Z,-3.38
2023-02-06T23:00:10.866Z,-3.44
2023-02-06T23:02:38.152Z,-3.54
2023-02-06T23:05:05.204Z,-3.70
2023-02-06T23:07:34.846Z,-3.61
2023-02-06T23:10:01.409Z,-3.66
2023-02-06T23:12:27.929Z,-3.73
2023-02-06T23:14:54.529Z,-3.73
2023-02-06T23:17:21.055Z,-3.71
2023-02-06T23:19:47.774Z,-3.73
2023-02-06T23:22:14.248Z,-3.61
2023-02-06T23:24:41.379Z,-3.64
2023-02-06T23:27:07.795Z,-3.40
2023-02-06T23:29:34.323Z,-3.12
2023-02-06T23:32:00.762Z,-2.45
2023-02-06T23:34:29.336Z,-1.95
2023-02-06T23:36:55.808Z,-2.45
2023-02-06T23:39:22.246Z,-2.94
2023-02-06T23:41:49.462Z,-2.87
2023-02-06T23:44:16.833Z,-2.89
2023-02-06T23:46:43.353Z,-2.94
2023-02-06T23:49:09.889Z,-3.12
2023-02-06T23:51:37.415Z,-3.00
2023-02-06T23:54:04.897Z,-2.76
2023-02-06T23:56:32.204Z,-2.64
2023-02-06T23:59:00.602Z,-2.66
